Time;durP1;ratioP1;P1;durP2;ratioP2;P2;SDS_P1;SDS_P2;PMS_P1;PMS_P2;Temp;Humidity;BMP_temperature;BMP_pressure;BME280_temperature;BME280_humidity;BME280_pressure;Samples;Min_cycle;Max_cycle;Signal;HPM_P1;HPM_P2
2023/11/03 00:03:13;;;;;;;7.78;3.05;;;;;;;;;;12664568;22;20433;-67
2023/11/03 00:08:10;;;;;;;5.63;2.80;;;;;;;;;;12691811;23;20548;-67
2023/11/03 00:13:06;;;;;;;6.10;3.20;;;;;;;;;;12690934;22;20021;-68
2023/11/03 00:18:03;;;;;;;5.82;3.30;;;;;;;;;;12691573;23;20091;-68
2023/11/03 00:23:00;;;;;;;5.75;3.03;;;;;;;;;;12648010;22;1038063;-67
2023/11/03 00:27:56;;;;;;;4.72;2.63;;;;;;;;;;12693397;23;20106;-68
2023/11/03 00:32:53;;;;;;;4.30;2.95;;;;;;;;;;12693564;22;20032;-68
2023/11/03 00:37:51;;;;;;;7.47;2.70;;;;;;;;;;12694043;23;20028;-68
2023/11/03 00:42:47;;;;;;;9.35;2.72;;;;;;;;;;12692682;22;20028;-68
2023/11/03 00:47:44;;;;;;;5.70;2.88;;;;;;;;;;12693002;23;20100;-69
2023/11/03 00:52:40;;;;;;;8.77;2.80;;;;;;;;;;12694073;22;20099;-69
2023/11/03 00:57:38;;;;;;;3.92;2.50;;;;;;;;;;12693498;23;20020;-69
2023/11/03 01:02:34;;;;;;;6.40;2.80;;;;;;;;;;12691177;22;20031;-69
2023/11/03 01:07:31;;;;;;;4.03;2.67;;;;;;;;;;12666953;23;20032;-67
2023/11/03 01:12:27;;;;;;;6.25;2.85;;;;;;;;;;12693235;22;20024;-67
2023/11/03 01:17:28;;;;;;;7.15;2.60;;;;;;;;;;12688546;23;20020;-68
2023/11/03 01:22:24;;;;;;;5.72;2.63;;;;;;;;;;12693244;22;20024;-67
2023/11/03 01:27:21;;;;;;;6.70;2.90;;;;;;;;;;12692950;23;20111;-66
2023/11/03 01:32:18;;;;;;;5.13;2.67;;;;;;;;;;12692049;22;20030;-67
2023/11/03 01:37:14;;;;;;;6.07;2.85;;;;;;;;;;12693256;23;20103;-67
2023/11/03 01:42:10;;;;;;;3.60;2.42;;;;;;;;;;12693058;22;20078;-67
2023/11/03 01:47:07;;;;;;;4.50;2.15;;;;;;;;;;12693081;23;20028;-69
2023/11/03 01:52:04;;;;;;;6.13;2.60;;;;;;;;;;12692573;22;20027;-68
2023/11/03 01:57:01;;;;;;;7.40;3.00;;;;;;;;;;12691791;23;20024;-69
2023/11/03 02:01:58;;;;;;;5.32;2.20;;;;;;;;;;12691774;22;20070;-69
2023/11/03 02:06:54;;;;;;;4.57;2.40;;;;;;;;;;12690080;23;20470;-67
2023/11/03 02:11:51;;;;;;;5.13;2.78;;;;;;;;;;12691913;22;20023;-68
2023/11/03 02:16:47;;;;;;;5.53;2.35;;;;;;;;;;12692164;23;20401;-67
2023/11/03 02:21:44;;;;;;;7.28;1.88;;;;;;;;;;12692553;22;20466;-68
2023/11/03 02:26:41;;;;;;;5.90;2.55;;;;;;;;;;12692417;23;20413;-68
2023/11/03 02:31:37;;;;;;;12.55;3.08;;;;;;;;;;12691913;22;20020;-67
2023/11/03 02:36:33;;;;;;;10.32;2.42;;;;;;;;;;12693779;23;20036;-67
2023/11/03 02:41:30;;;;;;;5.13;2.47;;;;;;;;;;12696207;22;20020;-68
2023/11/03 02:46:26;;;;;;;3.50;2.30;;;;;;;;;;12695625;23;20462;-68
2023/11/03 02:51:22;;;;;;;8.85;2.42;;;;;;;;;;12694987;22;20074;-67
2023/11/03 02:56:23;;;;;;;6.13;2.47;;;;;;;;;;12695801;23;20024;-67
2023/11/03 03:01:26;;;;;;;4.43;2.15;;;;;;;;;;12695841;22;20035;-67
2023/11/03 03:06:22;;;;;;;4.40;2.90;;;;;;;;;;12696125;23;20086;-67
2023/11/03 03:11:19;;;;;;;6.95;2.72;;;;;;;;;;12695480;22;20024;-67
2023/11/03 03:16:16;;;;;;;6.57;2.58;;;;;;;;;;12690304;23;20524;-67
2023/11/03 03:21:16;;;;;;;5.03;2.63;;;;;;;;;;12692859;23;20042;-67
2023/11/03 03:26:13;;;;;;;4.07;2.35;;;;;;;;;;12695102;23;20032;-68
2023/11/03 03:31:09;;;;;;;3.78;2.28;;;;;;;;;;12693992;23;20024;-67
2023/11/03 03:36:07;;;;;;;3.92;2.53;;;;;;;;;;12671082;23;20074;-67
2023/11/03 03:41:03;;;;;;;6.35;2.97;;;;;;;;;;12697282;23;20024;-67
2023/11/03 03:45:59;;;;;;;4.88;2.83;;;;;;;;;;12697328;22;20024;-67
2023/11/03 03:50:56;;;;;;;5.43;2.75;;;;;;;;;;12697368;23;20133;-68
2023/11/03 03:55:52;;;;;;;6.13;2.85;;;;;;;;;;12697225;22;20030;-68
2023/11/03 04:00:49;;;;;;;4.78;2.90;;;;;;;;;;12697398;23;20024;-67
2023/11/03 04:05:45;;;;;;;6.03;3.00;;;;;;;;;;12696990;22;20026;-68
2023/11/03 04:10:42;;;;;;;4.57;2.78;;;;;;;;;;12696991;23;20401;-67
2023/11/03 04:15:38;;;;;;;6.13;2.78;;;;;;;;;;12696331;22;20028;-68
2023/11/03 04:20:34;;;;;;;7.43;3.30;;;;;;;;;;12696879;23;20016;-69
2023/11/03 04:25:31;;;;;;;7.28;3.33;;;;;;;;;;12691487;22;20270;-71
2023/11/03 04:30:27;;;;;;;6.00;2.90;;;;;;;;;;12696110;23;20393;-69
2023/11/03 04:35:24;;;;;;;3.88;2.85;;;;;;;;;;12697560;22;20058;-69
2023/11/03 04:40:21;;;;;;;8.95;3.15;;;;;;;;;;12670805;23;20024;-68
2023/11/03 04:45:17;;;;;;;7.22;3.10;;;;;;;;;;12697157;22;20020;-69
2023/11/03 04:50:13;;;;;;;5.07;3.47;;;;;;;;;;12696142;23;20031;-69
2023/11/03 04:55:10;;;;;;;5.15;3.05;;;;;;;;;;12696754;22;20074;-69
2023/11/03 05:00:10;;;;;;;7.05;3.40;;;;;;;;;;12695819;23;20023;-67
2023/11/03 05:05:07;;;;;;;10.82;3.63;;;;;;;;;;12696686;22;20027;-68
2023/11/03 05:10:05;;;;;;;9.75;3.85;;;;;;;;;;12696137;23;20086;-69
2023/11/03 05:15:03;;;;;;;7.85;3.42;;;;;;;;;;12696738;22;20016;-70
2023/11/03 05:20:00;;;;;;;6.45;3.88;;;;;;;;;;12696124;23;20023;-67
2023/11/03 05:24:56;;;;;;;7.50;4.05;;;;;;;;;;12696918;22;20020;-68
2023/11/03 05:29:53;;;;;;;4.40;3.28;;;;;;;;;;12685745;23;20028;-70
2023/11/03 05:34:49;;;;;;;9.32;4.25;;;;;;;;;;12694089;22;20028;-70
2023/11/03 05:39:46;;;;;;;5.72;3.97;;;;;;;;;;12693034;23;20055;-70
2023/11/03 05:44:42;;;;;;;12.38;4.20;;;;;;;;;;12694007;22;20051;-70
2023/11/03 05:49:39;;;;;;;7.35;3.72;;;;;;;;;;12695780;23;20074;-71
2023/11/03 05:54:35;;;;;;;6.38;3.70;;;;;;;;;;12693483;22;20044;-70
2023/11/03 05:59:32;;;;;;;6.65;4.10;;;;;;;;;;12694387;23;20020;-71
2023/11/03 06:04:28;;;;;;;11.05;4.30;;;;;;;;;;12693176;22;20024;-71
2023/11/03 06:09:24;;;;;;;7.00;3.65;;;;;;;;;;12690911;23;20058;-70
2023/11/03 06:14:21;;;;;;;12.23;3.90;;;;;;;;;;12696274;22;20071;-72
2023/11/03 06:19:18;;;;;;;6.18;4.47;;;;;;;;;;12692021;23;20479;-73
2023/11/03 06:52:20;;;;;;;6.55;4.28;;;;;;;;;;12632470;23;20024;-73
2023/11/03 06:57:16;;;;;;;5.93;4.30;;;;;;;;;;12636064;23;20478;-73
2023/11/03 07:07:45;;;;;;;5.28;4.30;;;;;;;;;;12700105;22;20025;-73
2023/11/03 07:30:12;;;;;;;10.00;4.57;;;;;;;;;;12388290;23;20014;-73
2023/11/03 07:57:24;;;;;;;7.97;3.90;;;;;;;;;;12678869;22;20455;-73
2023/11/03 08:08:18;;;;;;;;;;;;;;;;;;;;;
2023/11/03 08:35:05;;;;;;;6.43;4.05;;;;;;;;;;12694212;22;20023;-76
2023/11/03 08:40:03;;;;;;;10.18;4.13;;;;;;;;;;12696766;23;20095;-74
2023/11/03 09:56:22;;;;;;;7.97;4.13;;;;;;;;;;12469327;23;20086;-75
2023/11/03 10:02:32;;;;;;;10.05;4.28;;;;;;;;;;12491289;23;20013;-73
2023/11/03 10:07:30;;;;;;;5.45;4.18;;;;;;;;;;12532454;23;20532;-74
2023/11/03 11:08:52;;;;;;;7.22;4.50;;;;;;;;;;12377813;23;20049;-74
2023/11/03 11:35:31;;;;;;;7.93;4.30;;;;;;;;;;12695161;22;20028;-74
2023/11/03 11:40:22;;;;;;;7.25;4.28;;;;;;;;;;12693444;23;20043;-73
2023/11/03 12:25:06;;;;;;;5.80;5.20;;;;;;;;;;12697398;22;20020;-74
2023/11/03 12:30:03;;;;;;;10.07;5.22;;;;;;;;;;12662314;23;20370;-74
2023/11/03 12:58:43;;;;;;;8.43;5.13;;;;;;;;;;12325880;23;20022;-73
2023/11/03 13:03:40;;;;;;;6.90;4.85;;;;;;;;;;12408213;23;20443;-74
2023/11/03 13:08:37;;;;;;;11.02;4.97;;;;;;;;;;12604741;23;20020;-73
2023/11/03 17:16:59;;;;;;;9.93;5.93;;;;;;;;;;12565587;23;20029;-74
2023/11/03 17:28:22;;;;;;;15.02;6.88;;;;;;;;;;12538224;23;20471;-74
2023/11/03 18:07:47;;;;;;;17.83;7.03;;;;;;;;;;12553278;23;20013;-75
2023/11/03 18:54:33;;;;;;;11.82;5.68;;;;;;;;;;12344673;23;20491;-73
2023/11/03 18:59:33;;;;;;;13.35;5.90;;;;;;;;;;12623381;23;20023;-74
2023/11/03 19:04:32;;;;;;;14.75;5.50;;;;;;;;;;12691989;22;20189;-73
2023/11/03 19:09:34;;;;;;;9.25;5.43;;;;;;;;;;12695129;23;20055;-73
2023/11/03 19:36:51;;;;;;;10.80;5.60;;;;;;;;;;12636570;23;20466;-74
2023/11/03 19:41:47;;;;;;;13.80;5.82;;;;;;;;;;12636983;23;20103;-74
2023/11/03 19:46:44;;;;;;;15.90;5.43;;;;;;;;;;12610747;23;20024;-73
2023/11/03 19:51:40;;;;;;;10.75;5.10;;;;;;;;;;12634211;23;20490;-74
2023/11/03 19:56:37;;;;;;;10.10;5.80;;;;;;;;;;12628147;23;20063;-75
2023/11/03 20:01:34;;;;;;;12.93;4.90;;;;;;;;;;12637061;23;20028;-74
2023/11/03 20:53:44;;;;;;;13.60;5.72;;;;;;;;;;12382021;23;20010;-74
2023/11/03 20:58:43;;;;;;;580.42;51.80;;;;;;;;;;12561355;23;20046;-75
2023/11/03 21:03:42;;;;;;;13.10;4.88;;;;;;;;;;12660520;22;20047;-74
2023/11/03 21:31:15;;;;;;;10.43;4.85;;;;;;;;;;12647420;22;20511;-73
2023/11/03 21:36:11;;;;;;;10.13;4.80;;;;;;;;;;12665597;23;20028;-71
2023/11/03 21:41:12;;;;;;;10.90;4.72;;;;;;;;;;12692867;23;20496;-68
2023/11/03 21:46:22;;;;;;;17.60;5.40;;;;;;;;;;12694363;22;20016;-69
2023/11/03 21:51:21;;;;;;;8.35;4.53;;;;;;;;;;12698867;23;20409;-69
2023/11/03 21:56:18;;;;;;;10.50;4.57;;;;;;;;;;12691943;22;20020;-69
2023/11/03 22:01:15;;;;;;;10.77;5.07;;;;;;;;;;12699912;23;20020;-69
2023/11/03 22:06:12;;;;;;;19.55;5.05;;;;;;;;;;12698802;22;20020;-68
2023/11/03 22:11:08;;;;;;;9.30;4.43;;;;;;;;;;12700198;23;20361;-68
2023/11/03 22:16:06;;;;;;;15.80;5.28;;;;;;;;;;12700935;22;20024;-67
2023/11/03 22:21:02;;;;;;;18.38;5.05;;;;;;;;;;12700039;23;20039;-68
2023/11/03 22:25:58;;;;;;;10.65;4.70;;;;;;;;;;12698355;22;20393;-68
2023/11/03 22:31:11;;;;;;;;;;;;;;;;;;12697884;23;20082;-69
2023/11/03 22:36:10;;;;;;;11.40;4.63;;;;;;;;;;12699820;22;19923;-67
2023/11/03 22:41:09;;;;;;;13.50;4.40;;;;;;;;;;12699489;23;20950;-67
2023/11/03 22:46:05;;;;;;;13.80;4.90;;;;;;;;;;12699936;22;20028;-67
2023/11/03 22:51:02;;;;;;;12.02;4.47;;;;;;;;;;12698344;23;20382;-67
2023/11/03 22:55:58;;;;;;;11.07;4.63;;;;;;;;;;12699435;22;20086;-70
2023/11/03 23:00:55;;;;;;;15.30;4.85;;;;;;;;;;12697902;23;20020;-67
2023/11/03 23:05:51;;;;;;;11.25;4.40;;;;;;;;;;12693216;22;20020;-68
2023/11/03 23:10:49;;;;;;;7.85;4.55;;;;;;;;;;12699521;23;20024;-68
2023/11/03 23:15:45;;;;;;;13.15;4.63;;;;;;;;;;12699270;22;20016;-67
2023/11/03 23:20:44;;;;;;;13.02;4.75;;;;;;;;;;12699044;23;20034;-67
2023/11/03 23:25:40;;;;;;;19.33;4.20;;;;;;;;;;12697993;22;20100;-67
2023/11/03 23:30:37;;;;;;;15.50;4.07;;;;;;;;;;12697928;23;20431;-67
2023/11/03 23:35:33;;;;;;;12.30;4.40;;;;;;;;;;12697880;22;20032;-68
2023/11/03 23:40:30;;;;;;;8.25;4.40;;;;;;;;;;12699472;23;20028;-67
2023/11/03 23:45:26;;;;;;;8.30;3.90;;;;;;;;;;12697527;22;20074;-69
2023/11/03 23:50:23;;;;;;;7.90;3.80;;;;;;;;;;12700348;23;20028;-68
2023/11/03 23:55:20;;;;;;;8.77;4.32;;;;;;;;;;12673046;23;20031;-68
